»·PEaware :: N800DW CYQX-BIRK

N800DW :: CYQX-BIRK

FLIGHT INFORMATION

Flight Status: Arrived
Operator: Privately registered:
United States
More flights under this callsign
Pilot: Scott L. (17677)
Aircraft: Unknown
(EPIC)
More flights by this aircraft type
Origin: CYQX Gander Intl
Canada
Destination: BIRK Reykjavik
Iceland
More flights between these airports :: More routes between these airports
Route: DCT YAY J553 YNA J560 YZV J582 UM J563 HO CUT60 5950N DCT
File this flight plan on PilotEdge
Remarks:
Altitude:
(Current/Filed)
31,000ft
Speed:
(Current/Filed)
250kts
Departed: 11-Feb-18 11:09 AM
Arrived: 11-Feb-18 04:40 PM
Distance/Time
Traveled:
1386nm/5:30
Distance/Time
To Go:
Arrived

Flight Plot

Page will automatically refresh every two minutes.

Flight plan parsing failed; only flown route is shown


Map Options




Map Legend


Flown Route
Filed Route
Departure Airport
Arrival Airport
Navaid (VOR, NDB)
Fix

Horizontal Profiles

Position Reports

Time Latitude Longitude Heading Altitude Ground
Speed
11-Feb-18 11:15 50.856106 -53.453015 15 31004ft 366kts
11-Feb-18 11:16 50.934291 -53.353961 17 31003ft 355kts
11-Feb-18 11:17 51.008790 -53.257230 18 30985ft 344kts
11-Feb-18 11:18 51.082036 -53.161551 18 30987ft 339kts
11-Feb-18 11:19 51.152699 -53.068825 18 30988ft 336kts
11-Feb-18 11:20 51.224693 -52.974003 18 30990ft 336kts
11-Feb-18 11:21 51.296402 -52.879106 18 30992ft 336kts
11-Feb-18 11:22 51.368231 -52.783675 18 30993ft 337kts
11-Feb-18 11:23 51.440083 -52.687819 18 30998ft 337kts
11-Feb-18 11:24 51.511360 -52.592315 18 30998ft 339kts
11-Feb-18 11:25 51.583936 -52.494643 18 31019ft 339kts
11-Feb-18 11:26 51.655915 -52.397386 18 31021ft 340kts
11-Feb-18 11:27 51.728232 -52.299200 19 30996ft 340kts
11-Feb-18 11:28 51.799865 -52.201533 19 31031ft 337kts
11-Feb-18 11:29 51.871132 -52.103984 19 31055ft 336kts
11-Feb-18 11:30 51.942172 -52.006297 19 31049ft 337kts
11-Feb-18 11:31 52.013530 -51.907790 18 31055ft 337kts
11-Feb-18 11:32 52.084781 -51.808961 19 31058ft 338kts
11-Feb-18 11:33 52.156416 -51.709155 19 31057ft 339kts
11-Feb-18 11:34 52.227814 -51.609270 19 31061ft 340kts
11-Feb-18 11:35 52.299302 -51.508777 19 31066ft 341kts
11-Feb-18 11:36 52.370900 -51.407500 16 31065ft 338kts
11-Feb-18 11:37 52.441487 -51.307583 16 31048ft 334kts
11-Feb-18 11:38 52.511094 -51.208457 16 31049ft 329kts
11-Feb-18 11:39 52.580721 -51.109002 18 31054ft 337kts
11-Feb-18 11:40 52.651490 -51.007310 17 31052ft 339kts
11-Feb-18 11:41 52.722427 -50.904938 18 31057ft 342kts
11-Feb-18 11:42 52.793796 -50.801490 18 31060ft 343kts
11-Feb-18 11:43 52.865441 -50.697131 18 31060ft 344kts
11-Feb-18 11:44 52.937080 -50.592340 18 31063ft 345kts
11-Feb-18 11:45 53.008898 -50.486954 20 31061ft 345kts
11-Feb-18 11:46 53.080507 -50.381219 23 31065ft 343kts
11-Feb-18 11:47 53.151186 -50.276250 25 31049ft 339kts
11-Feb-18 11:48 53.220832 -50.172405 25 31051ft 336kts
11-Feb-18 11:49 53.290278 -50.068461 25 31053ft 335kts
11-Feb-18 11:50 53.359520 -49.964349 25 31054ft 335kts
11-Feb-18 11:51 53.428680 -49.859882 25 31056ft 335kts
11-Feb-18 11:52 53.497670 -49.755192 25 31058ft 336kts
11-Feb-18 11:53 53.566795 -49.649813 25 31059ft 336kts
11-Feb-18 11:54 53.635751 -49.544206 25 31061ft 337kts
11-Feb-18 11:55 53.705066 -49.437555 25 31063ft 337kts
11-Feb-18 11:56 53.774220 -49.330674 26 31051ft 338kts
11-Feb-18 11:57 53.842960 -49.223891 26 31050ft 336kts
11-Feb-18 11:58 53.911732 -49.116606 26 31052ft 336kts
11-Feb-18 11:59 53.980248 -49.009205 26 31053ft 336kts
11-Feb-18 12:00 54.048527 -48.901654 26 31055ft 336kts
11-Feb-18 12:01 54.116757 -48.793681 26 31057ft 336kts
11-Feb-18 12:02 54.184994 -48.685207 26 31026ft 338kts
11-Feb-18 12:03 54.254824 -48.573693 27 30715ft 347kts
11-Feb-18 12:04 54.324703 -48.461462 27 30431ft 350kts
11-Feb-18 12:05 54.394065 -48.349514 28 30422ft 344kts
11-Feb-18 12:06 54.462988 -48.237805 28 30408ft 339kts
11-Feb-18 12:07 54.531035 -48.126979 28 30410ft 337kts
11-Feb-18 12:08 54.598976 -48.015784 28 30412ft 337kts
11-Feb-18 12:09 54.666711 -47.904385 28 30413ft 337kts
11-Feb-18 12:10 54.734170 -47.792897 28 30415ft 337kts
11-Feb-18 12:11 54.801945 -47.680338 28 30417ft 338kts
11-Feb-18 12:12 54.869606 -47.567418 28 30419ft 338kts
11-Feb-18 12:13 54.937089 -47.454293 28 30420ft 339kts
11-Feb-18 12:14 55.004682 -47.340394 30 30414ft 339kts
11-Feb-18 12:15 55.072222 -47.225940 30 30409ft 338kts
11-Feb-18 12:16 55.138058 -47.113861 30 30410ft 337kts
11-Feb-18 12:17 55.205266 -46.998911 30 30412ft 337kts
11-Feb-18 12:18 55.271948 -46.884286 30 30414ft 337kts
11-Feb-18 12:19 55.338778 -46.768827 30 30415ft 337kts
11-Feb-18 12:20 55.405101 -46.653674 30 30417ft 337kts
11-Feb-18 12:21 55.471591 -46.537651 30 30418ft 337kts
11-Feb-18 12:22 55.538104 -46.421005 30 30420ft 338kts
11-Feb-18 12:23 55.605721 -46.307497 28 30409ft 334kts
11-Feb-18 12:24 55.675427 -46.202329 24 30410ft 328kts
11-Feb-18 12:25 55.747284 -46.105342 20 30411ft 323kts
11-Feb-18 12:26 55.820764 -46.017178 16 30413ft 318kts
11-Feb-18 12:27 55.863334 -45.970859 14 30413ft 315kts
11-Feb-18 12:28 55.905446 -45.928301 11 30414ft 312kts
11-Feb-18 12:29 55.981972 -45.858907 7 30415ft 307kts
11-Feb-18 12:30 56.059610 -45.798519 3 30416ft 302kts
11-Feb-18 12:31 56.137507 -45.747659 0 30416ft 296kts
11-Feb-18 12:32 56.215517 -45.706226 356 30417ft 290kts
11-Feb-18 12:33 56.293377 -45.674228 352 30417ft 285kts
11-Feb-18 12:34 56.370621 -45.651728 348 30417ft 279kts
11-Feb-18 12:35 56.446767 -45.638693 344 30417ft 273kts
11-Feb-18 12:36 56.521610 -45.634982 340 30418ft 267kts
11-Feb-18 12:37 56.594559 -45.640405 336 30418ft 260kts
11-Feb-18 12:38 56.665532 -45.654813 332 30417ft 254kts
11-Feb-18 12:39 56.733990 -45.677960 328 30417ft 248kts
11-Feb-18 12:40 56.799979 -45.709741 324 30417ft 242kts
11-Feb-18 12:41 56.862582 -45.749523 320 30416ft 236kts
11-Feb-18 12:42 56.921497 -45.796773 316 30416ft 230kts
11-Feb-18 12:43 56.977413 -45.851963 313 30414ft 225kts
11-Feb-18 12:44 57.029412 -45.914435 309 30414ft 222kts
11-Feb-18 12:45 57.077187 -45.983844 306 30413ft 221kts
11-Feb-18 12:46 57.136479 -46.016386 21 30402ft 310kts
11-Feb-18 12:47 57.170639 -45.859479 59 30421ft 341kts
11-Feb-18 12:48 57.223542 -45.718537 41 30416ft 332kts
11-Feb-18 12:49 57.282805 -45.588674 39 30416ft 332kts
11-Feb-18 12:50 57.342746 -45.458762 39 30418ft 333kts
11-Feb-18 12:51 57.402781 -45.328138 40 30410ft 333kts
11-Feb-18 12:52 57.462472 -45.197504 40 30410ft 333kts
11-Feb-18 12:53 57.521918 -45.066725 40 30411ft 332kts
11-Feb-18 12:54 57.581563 -44.934772 40 30413ft 332kts
11-Feb-18 12:54 57.630983 -44.824872 40 30414ft 333kts
11-Feb-18 12:56 57.699809 -44.670962 40 30416ft 333kts
11-Feb-18 12:57 57.758771 -44.538313 40 30417ft 333kts
11-Feb-18 12:58 57.818308 -44.403609 40 30418ft 334kts
11-Feb-18 12:59 57.877311 -44.269364 41 30410ft 333kts
11-Feb-18 12:59 57.926404 -44.157066 41 30411ft 333kts
11-Feb-18 13:00 57.984828 -44.022735 41 30412ft 333kts
11-Feb-18 13:01 58.043364 -43.887376 41 30414ft 333kts
11-Feb-18 13:02 58.101302 -43.752631 41 30415ft 333kts
11-Feb-18 13:03 58.159076 -43.617500 41 30416ft 334kts
11-Feb-18 13:04 58.217242 -43.480668 41 30417ft 334kts
11-Feb-18 13:05 58.275308 -43.343287 42 30416ft 334kts
11-Feb-18 13:06 58.333282 -43.205292 42 30410ft 334kts
11-Feb-18 13:07 58.391049 -43.067017 42 30411ft 334kts
11-Feb-18 13:08 58.448516 -42.928637 43 30413ft 335kts
11-Feb-18 13:10 58.506200 -42.788904 43 30414ft 335kts
11-Feb-18 13:11 58.563741 -42.648695 43 30416ft 336kts
11-Feb-18 13:12 58.621246 -42.507740 43 30417ft 336kts
11-Feb-18 13:13 58.678680 -42.366113 43 30418ft 337kts
11-Feb-18 13:14 58.736001 -42.223919 44 30410ft 336kts
11-Feb-18 13:15 58.793076 -42.081468 44 30412ft 336kts
11-Feb-18 13:16 58.849731 -41.939219 44 30413ft 336kts
11-Feb-18 13:17 58.906509 -41.795858 44 30415ft 336kts
11-Feb-18 13:18 58.963037 -41.652218 45 30416ft 335kts
11-Feb-18 13:19 59.018992 -41.509127 46 30417ft 333kts
11-Feb-18 13:20 59.074722 -41.365678 46 30418ft 331kts
11-Feb-18 13:21 59.129415 -41.224117 47 30409ft 329kts
11-Feb-18 13:22 59.184141 -41.081611 47 30411ft 328kts
11-Feb-18 13:23 59.238511 -40.939218 47 30412ft 328kts
11-Feb-18 13:24 59.292661 -40.796505 47 30413ft 327kts
11-Feb-18 13:25 59.346557 -40.653567 47 30414ft 327kts
11-Feb-18 13:26 59.400480 -40.509711 47 30415ft 327kts
11-Feb-18 13:27 59.453777 -40.366655 47 30417ft 327kts
11-Feb-18 13:28 59.507086 -40.222693 48 30411ft 326kts
11-Feb-18 13:29 59.560349 -40.077962 48 30412ft 326kts
11-Feb-18 13:30 59.613290 -39.933221 48 30413ft 326kts
11-Feb-18 13:31 59.666294 -39.787407 48 30414ft 327kts
11-Feb-18 13:32 59.718876 -39.641851 48 30415ft 327kts
11-Feb-18 13:33 59.771860 -39.494277 48 30330ft 330kts
11-Feb-18 13:34 59.825447 -39.344061 50 30033ft 337kts
11-Feb-18 13:35 59.878893 -39.193231 49 29952ft 333kts
11-Feb-18 13:36 59.931636 -39.043543 50 29953ft 329kts
11-Feb-18 13:37 59.983925 -38.894133 50 29955ft 329kts
11-Feb-18 13:38 60.035959 -38.744438 50 29956ft 329kts
11-Feb-18 13:39 60.088091 -38.593531 50 29957ft 329kts
11-Feb-18 13:40 60.139881 -38.442657 50 29955ft 329kts
11-Feb-18 13:41 60.190887 -38.293125 51 29950ft 329kts
11-Feb-18 13:42 60.242338 -38.141268 51 29951ft 328kts
11-Feb-18 13:43 60.293441 -37.989476 51 29952ft 328kts
11-Feb-18 13:44 60.344585 -37.836565 51 29953ft 328kts
11-Feb-18 13:45 60.395431 -37.683542 51 29955ft 329kts
11-Feb-18 13:46 60.446100 -37.530043 51 29956ft 329kts
11-Feb-18 13:47 60.496574 -37.376120 51 29957ft 329kts
11-Feb-18 13:48 60.546466 -37.222970 52 29951ft 329kts
11-Feb-18 13:49 60.597091 -37.066547 52 29953ft 329kts
11-Feb-18 13:50 60.647102 -36.910946 53 29954ft 329kts
11-Feb-18 13:51 60.697019 -36.754581 53 29955ft 329kts
11-Feb-18 13:52 60.746701 -36.597910 53 29956ft 329kts
11-Feb-18 13:53 60.796208 -36.440730 53 29957ft 330kts
11-Feb-18 13:54 60.845725 -36.282465 54 29952ft 330kts
11-Feb-18 13:55 60.895006 -36.123829 54 29953ft 329kts
11-Feb-18 13:56 60.943952 -35.965199 54 29955ft 329kts
11-Feb-18 13:57 60.992738 -35.805993 54 29956ft 330kts
11-Feb-18 13:58 61.041308 -35.646389 54 29957ft 330kts
11-Feb-18 13:59 61.089813 -35.485885 54 29958ft 330kts
11-Feb-18 14:00 61.137459 -35.327169 55 29951ft 330kts
11-Feb-18 14:01 61.185558 -35.165739 55 29951ft 329kts
11-Feb-18 14:02 61.233421 -35.004010 55 29952ft 329kts
11-Feb-18 14:03 61.281062 -34.841891 55 29953ft 330kts
11-Feb-18 14:04 61.328584 -34.679000 55 29954ft 330kts
11-Feb-18 14:05 61.376042 -34.515169 55 29955ft 331kts
11-Feb-18 14:06 61.423058 -34.351692 55 29957ft 331kts
11-Feb-18 14:07 61.470153 -34.186764 56 29951ft 331kts
11-Feb-18 14:08 61.517004 -34.021484 56 29953ft 331kts
11-Feb-18 14:09 61.563598 -33.855912 56 29954ft 331kts
11-Feb-18 14:10 61.610091 -33.689482 56 29955ft 331kts
11-Feb-18 14:11 61.656497 -33.522135 56 29956ft 331kts
11-Feb-18 14:12 61.702293 -33.355761 56 29958ft 332kts
11-Feb-18 14:13 61.748202 -33.187748 57 29952ft 331kts
11-Feb-18 14:14 61.794338 -33.017623 57 29954ft 331kts
11-Feb-18 14:15 61.839865 -32.848469 57 29955ft 331kts
11-Feb-18 14:16 61.885205 -32.678726 57 29956ft 331kts
11-Feb-18 14:17 61.930283 -32.508684 57 29957ft 331kts
11-Feb-18 14:18 61.974855 -32.339292 58 29956ft 332kts
11-Feb-18 14:19 62.019586 -32.167965 58 29954ft 331kts
11-Feb-18 14:20 62.063915 -31.996872 58 29955ft 331kts
11-Feb-18 14:21 62.108084 -31.825077 58 29953ft 331kts
11-Feb-18 14:22 62.152230 -31.652040 58 29954ft 331kts
11-Feb-18 14:23 62.196017 -31.479061 58 29955ft 331kts
11-Feb-18 14:24 62.239549 -31.305773 59 29951ft 331kts
11-Feb-18 14:25 62.282988 -31.131406 59 29951ft 331kts
11-Feb-18 14:26 62.325983 -30.957485 59 29953ft 330kts
11-Feb-18 14:27 62.368430 -30.784438 59 29954ft 331kts
11-Feb-18 14:28 62.411555 -30.607208 59 29955ft 331kts
11-Feb-18 14:29 62.454041 -30.431185 59 29956ft 331kts
11-Feb-18 14:30 62.496285 -30.254760 60 29951ft 331kts
11-Feb-18 14:31 62.538104 -30.078656 60 29861ft 333kts
11-Feb-18 14:32 62.580086 -29.900419 60 29792ft 334kts
11-Feb-18 14:33 62.621554 -29.722924 60 29793ft 333kts
11-Feb-18 14:34 62.662904 -29.544473 60 29794ft 332kts
11-Feb-18 14:35 62.703906 -29.366049 60 29795ft 333kts
11-Feb-18 14:36 62.744517 -29.188136 62 29804ft 332kts
11-Feb-18 14:37 62.784761 -29.009834 62 29819ft 333kts
11-Feb-18 14:38 62.825327 -28.828770 62 29820ft 333kts
11-Feb-18 14:39 62.865541 -28.647835 61 29821ft 334kts
11-Feb-18 14:40 62.905721 -28.465476 61 29822ft 334kts
11-Feb-18 14:41 62.944916 -28.286099 63 29818ft 334kts
11-Feb-18 14:42 62.984244 -28.104500 63 29819ft 334kts
11-Feb-18 14:43 63.023489 -27.921735 62 29820ft 334kts
11-Feb-18 14:44 63.062470 -27.738608 62 29821ft 334kts
11-Feb-18 14:45 63.101371 -27.554246 62 29822ft 334kts
11-Feb-18 14:46 63.139827 -27.370390 62 29820ft 334kts
11-Feb-18 14:47 63.178111 -27.185719 63 29815ft 333kts
11-Feb-18 14:48 63.216200 -27.000283 63 29817ft 333kts
11-Feb-18 14:49 63.254010 -26.814610 63 29818ft 333kts
11-Feb-18 14:50 63.291482 -26.628943 63 29819ft 334kts
11-Feb-18 14:51 63.328683 -26.442908 63 29820ft 334kts
11-Feb-18 14:52 63.343202 -26.369837 63 29821ft 334kts
11-Feb-18 14:53 63.343202 -26.369837 63 29821ft 334kts
11-Feb-18 14:54 63.343202 -26.369837 63 29821ft 334kts
11-Feb-18 14:55 63.343202 -26.369837 63 29821ft 334kts
11-Feb-18 14:56 63.343202 -26.369837 63 29821ft 334kts
11-Feb-18 14:57 63.343202 -26.369837 63 29821ft 334kts
11-Feb-18 14:58 63.343202 -26.369837 63 29821ft 334kts
11-Feb-18 14:59 63.343202 -26.369837 63 29821ft 334kts
11-Feb-18 15:00 63.343202 -26.369837 63 29821ft 334kts
11-Feb-18 15:01 63.343202 -26.369837 63 29821ft 334kts
11-Feb-18 15:01 63.343202 -26.369837 63 29821ft 334kts
11-Feb-18 15:03 63.343202 -26.369837 63 29821ft 334kts
11-Feb-18 15:03 63.343202 -26.369837 63 29821ft 334kts
11-Feb-18 15:05 63.343202 -26.369837 63 29821ft 334kts
11-Feb-18 15:06 63.343202 -26.369837 63 29821ft 334kts
11-Feb-18 15:06 63.343202 -26.369837 63 29821ft 334kts
11-Feb-18 15:07 63.343202 -26.369837 63 29821ft 334kts
11-Feb-18 15:08 63.343202 -26.369837 63 29821ft 334kts
11-Feb-18 15:09 63.343202 -26.369837 63 29821ft 334kts
11-Feb-18 15:10 63.348941 -26.340904 64 29820ft 334kts
11-Feb-18 15:11 63.374018 -26.213890 64 29816ft 334kts
11-Feb-18 15:12 63.438539 -26.134625 319 29344ft 279kts
11-Feb-18 15:13 63.498285 -26.131934 36 29009ft 337kts
11-Feb-18 15:14 63.507880 -25.944591 104 30190ft 303kts
11-Feb-18 15:16 63.509607 -25.748582 75 30211ft 332kts
11-Feb-18 15:17 63.538030 -25.548532 69 29765ft 332kts
11-Feb-18 15:18 63.567598 -25.359566 68 28779ft 314kts
11-Feb-18 15:19 63.593706 -25.192856 69 27857ft 307kts
11-Feb-18 15:20 63.621626 -25.012854 69 26854ft 303kts
11-Feb-18 15:21 63.649122 -24.834042 69 25859ft 302kts
11-Feb-18 15:22 63.676311 -24.655386 69 24871ft 301kts
11-Feb-18 15:23 63.703029 -24.478017 69 23897ft 301kts
11-Feb-18 15:24 63.729246 -24.302273 70 22930ft 301kts
11-Feb-18 15:25 63.755623 -24.123545 70 21929ft 301kts
11-Feb-18 15:26 63.781775 -23.944545 70 20936ft 301kts
11-Feb-18 15:27 63.807758 -23.764861 70 19947ft 301kts
11-Feb-18 15:28 63.833555 -23.584578 70 18963ft 301kts
11-Feb-18 15:29 63.858979 -23.405009 70 17988ft 299kts
11-Feb-18 15:30 63.883470 -23.230204 71 17009ft 294kts
11-Feb-18 15:31 63.907687 -23.055559 71 16018ft 292kts
11-Feb-18 15:32 63.921405 -22.883900 61 13851ft 272kts
11-Feb-18 15:33 63.949151 -22.739301 67 12371ft 239kts
11-Feb-18 15:34 63.968971 -22.602390 68 10880ft 220kts
11-Feb-18 15:35 63.986352 -22.474307 68 9396ft 207kts
11-Feb-18 15:36 63.991299 -22.437312 68 8952ft 203kts
11-Feb-18 15:37 63.991299 -22.437312 68 8952ft 203kts
11-Feb-18 15:38 63.991299 -22.437312 68 8952ft 203kts
11-Feb-18 15:39 63.991299 -22.437312 68 8952ft 203kts
11-Feb-18 15:40 63.991299 -22.437312 68 8952ft 203kts
11-Feb-18 15:41 63.991299 -22.437312 68 8952ft 203kts
11-Feb-18 15:42 63.991299 -22.437312 68 8952ft 203kts
11-Feb-18 15:43 63.991299 -22.437312 68 8952ft 203kts
11-Feb-18 15:44 63.991299 -22.437312 68 8952ft 203kts
11-Feb-18 15:45 63.991299 -22.437312 68 8952ft 203kts
11-Feb-18 15:46 63.991299 -22.437312 68 8952ft 203kts
11-Feb-18 15:47 63.991299 -22.437312 68 8952ft 203kts
11-Feb-18 15:48 63.991299 -22.437312 68 8952ft 203kts
11-Feb-18 15:49 63.991299 -22.437312 68 8952ft 203kts
11-Feb-18 15:50 63.991299 -22.437312 68 8952ft 203kts
11-Feb-18 15:51 63.991299 -22.437312 68 8952ft 203kts
11-Feb-18 15:52 63.991299 -22.437312 68 8952ft 203kts
11-Feb-18 15:53 63.991299 -22.437312 68 8952ft 203kts
11-Feb-18 15:54 63.991299 -22.437312 68 8952ft 203kts
11-Feb-18 15:55 63.991299 -22.437312 68 8952ft 203kts
11-Feb-18 15:56 63.991299 -22.437312 68 8952ft 203kts
11-Feb-18 15:57 63.991299 -22.437312 68 8952ft 203kts
11-Feb-18 15:58 63.991299 -22.437312 68 8952ft 203kts
11-Feb-18 15:59 63.991299 -22.437312 68 8952ft 203kts
11-Feb-18 16:00 63.991299 -22.437312 68 8952ft 203kts
11-Feb-18 16:01 63.991299 -22.437312 68 8952ft 203kts
11-Feb-18 16:02 63.991299 -22.437312 68 8952ft 203kts
11-Feb-18 16:03 63.991299 -22.437312 68 8952ft 203kts
11-Feb-18 16:04 63.991299 -22.437312 68 8952ft 203kts
11-Feb-18 16:05 63.991299 -22.437312 68 8952ft 203kts
11-Feb-18 16:06 63.991299 -22.437312 68 8952ft 203kts
11-Feb-18 16:07 63.991299 -22.437312 68 8952ft 203kts
11-Feb-18 16:08 63.991299 -22.437312 68 8952ft 203kts
11-Feb-18 16:09 63.991299 -22.437312 68 8952ft 203kts
11-Feb-18 16:10 63.991299 -22.437312 68 8952ft 203kts
11-Feb-18 16:11 63.991299 -22.437312 68 8952ft 203kts
11-Feb-18 16:12 63.991299 -22.437312 68 8952ft 203kts
11-Feb-18 16:13 63.991299 -22.437312 68 8952ft 203kts
11-Feb-18 16:14 63.991299 -22.437312 68 8952ft 203kts
11-Feb-18 16:15 63.991299 -22.437312 68 8952ft 203kts
11-Feb-18 16:16 63.991299 -22.437312 68 8952ft 203kts
11-Feb-18 16:17 63.991299 -22.437312 68 8952ft 203kts
11-Feb-18 16:18 63.991299 -22.437312 68 8952ft 203kts
11-Feb-18 16:19 63.991299 -22.437312 68 8952ft 203kts
11-Feb-18 16:20 63.991299 -22.437312 68 8952ft 203kts
11-Feb-18 16:21 63.991299 -22.437312 68 8952ft 203kts
11-Feb-18 16:22 63.991299 -22.437312 68 8952ft 203kts
11-Feb-18 16:23 63.991299 -22.437312 68 8952ft 203kts
11-Feb-18 16:24 63.991299 -22.437312 68 8952ft 203kts
11-Feb-18 16:25 63.991299 -22.437312 68 8952ft 203kts
11-Feb-18 16:26 63.991299 -22.437312 68 8952ft 203kts
11-Feb-18 16:27 63.991299 -22.437312 68 8952ft 203kts
11-Feb-18 16:28 63.991299 -22.437312 68 8952ft 203kts
11-Feb-18 16:29 63.991299 -22.437312 68 8952ft 203kts
11-Feb-18 16:30 63.991299 -22.437312 68 8952ft 203kts
11-Feb-18 16:31 63.991299 -22.437312 68 8952ft 203kts
11-Feb-18 16:32 63.991299 -22.437312 68 8952ft 203kts
11-Feb-18 16:33 63.991299 -22.437312 68 8952ft 203kts
11-Feb-18 16:34 63.991299 -22.437312 68 8952ft 203kts
11-Feb-18 16:35 63.991299 -22.437312 68 8952ft 203kts
11-Feb-18 16:36 63.991299 -22.437312 68 8952ft 203kts
11-Feb-18 16:37 63.999742 -22.374486 71 8183ft 198kts
11-Feb-18 16:38 64.014986 -22.258556 71 6698ft 189kts
11-Feb-18 16:39 64.029570 -22.146804 69 5201ft 180kts
11-Feb-18 16:40 64.043427 -22.040204 68 3685ft 172kts
11-Feb-18 16:41 64.056538 -21.939463 69 3021ft 183kts
11-Feb-18 16:42 64.071545 -21.823377 69 2993ft 195kts
11-Feb-18 16:43 64.095178 -21.758900 309 2952ft 68kts
11-Feb-18 16:44 64.103329 -21.821758 296 2068ft 133kts
11-Feb-18 16:45 64.116812 -21.884036 299 1018ft 74kts
11-Feb-18 16:46 64.126806 -21.928970 294 149ft 66kts
11-Feb-18 16:47 64.131692 -21.951703 296 7ft 31kts
11-Feb-18 16:48 64.130824 -21.958083 202 6ft 27kts

Navigation Log

Ident Type
Flight plan parsing failed, navigation log unavailable